Terminal Aerodrome Forecast
Issued by NWS

Home | Current Version | Previous Version | Text Only | Print | Product List | Glossary On
Versions: 1 2 3 4 5 6 7 8 9 10 11 12 13 14 15 16 17 18 19
000
FTAK31 PAFA 242336
TAFAUN
TAF
PAUN 242336Z 2500/2524 29007KT P6SM -SHRA BKN035 OVC050
     FM250200 18006KT 5SM -RA BR SCT009 BKN012 OVC025
     FM250600 15008KT 4SM -RA BR BKN007 OVC015=

USA.gov is the U.S. government's official web portal to all federal, state and local government web resources and services.